aviador You're here:

CYRV Decoded Metar

REVELSTOKE AIRPO in BC, CANADA
Report Time2018-02-25 11:21:00
UTC Time2018-02-25 11:37:04
Flight Rules mvfr MVFR
Wind350° at 04 kt
W.Decomp.*RWY 30: 3.3 kt HW 2.2 kt RCW
W.Rank350° ranks 4
Current wind is below 350° avg. (6.4)
Visibility8047 m
Phenomena:Light Snow
Clouds:Overcast 015 Hf
Expected CloudBase > 800 ft AGL from Temp-Dew spread
Ceiling1,500 ft
Temp-4°C (ISA -16)
Dew Point-6°C (86% RH)
AAT-8.2°C
QNH1004 hPa
Density Alt-157 ft
Elevation1,453 ft
Report Wrong Elevation
Raw Report
SPECI CYRV 251121Z AUTO 35004KT 290V360 5SM -SN OVC015 M04/M06 A2966
RMK PRESFR SLP069=

Extra information for CYRV:More info

Metar Taf Metar & Taf Last 4 Metars F.Rules Stats Wind Profile Meteogram Temp Stats Airport Information Weather charts Add Link Nearby VenuesMetar ALERT Operation Metar Decoded Social comments